This is the latest recevied weather packets stored in our database for station/object KE1THD. If no packets are shown the sender has not sent any weather packets the latest 10 day(s).
| Time | Temp. | Humidity | Pressure | Rain* | Wind** | Luminosity | Snow |
|---|---|---|---|---|---|---|---|
| 1777159892 | 21.67° C | 42% | 1013.6 hPa | 0 mm | - | 78 W/m² | - |
| 1777159587 | 21.67° C | 42% | 1013.4 hPa | 0 mm | - | 92 W/m² | - |
| 1777159285 | 21.67° C | 42% | 1013.4 hPa | 0 mm | - | 100 W/m² | - |
| 1777158980 | 21.67° C | 42% | 1013.3 hPa | 0 mm | - | 103 W/m² | - |
| 1777158675 | 21.67° C | 42% | 1013.2 hPa | 0 mm | - | 105 W/m² | - |
| 1777158370 | 22.22° C | 41% | 1013.4 hPa | 0 mm | - | 111 W/m² | - |
| 1777158067 | 21.67° C | 41% | 1013.2 hPa | 0 mm | - | 121 W/m² | - |
| 1777157762 | 21.67° C | 41% | 1013 hPa | 0 mm | - | 149 W/m² | - |
| 1777157458 | 22.22° C | 41% | 1013.3 hPa | 0 mm | - | 173 W/m² | - |
| 1777157155 | 22.22° C | 42% | 1013.1 hPa | 0 mm | - | 225 W/m² | - |
| 1777156854 | 22.78° C | 41% | 1013.2 hPa | 0 mm | - | 160 W/m² | - |
| 1777156549 | 22.78° C | 40% | 1013.2 hPa | 0 mm | - | 172 W/m² | - |
| 1777156247 | 22.78° C | 40% | 1013 hPa | 0 mm | - | 171 W/m² | - |
| 1777155943 | 22.78° C | 41% | 1013.1 hPa | 0 mm | - | 248 W/m² | - |
| 1777155638 | 23.33° C | 39% | 1012.7 hPa | 0 mm | - | 329 W/m² | - |
| 1777155336 | 23.33° C | 41% | 1012.9 hPa | 0 mm | - | 337 W/m² | - |
| 1777155033 | 22.78° C | 41% | 1012.7 hPa | 0 mm | - | 352 W/m² | - |
| 1777154730 | 23.33° C | 41% | 1012.7 hPa | 0 mm | - | 339 W/m² | - |
| 1777154426 | 22.78° C | 41% | 1013.1 hPa | 0 mm | - | 376 W/m² | - |
| 1777154121 | 23.89° C | 40% | 1013.2 hPa | 0 mm | - | 333 W/m² | - |
| 1777153817 | 23.33° C | 40% | 1012.9 hPa | 0 mm | - | 356 W/m² | - |
| 1777153514 | 23.89° C | 38% | 1013.1 hPa | 0 mm | - | 372 W/m² | - |
| 1777153209 | 23.89° C | 40% | 1012.9 hPa | 0 mm | - | 391 W/m² | - |
| 1777152907 | 24.44° C | 39% | 1012.8 hPa | 0 mm | - | 444 W/m² | - |
| 1777152603 | 23.89° C | 42% | 1013.2 hPa | 0 mm | - | 451 W/m² | - |
* Rain latest hour (hover to see other rain measurements)
** Current wind speed in m/s (hover to see current wind gust speed)